sensor_id;sensor_type;location;lat;lon;timestamp;temperature;humidity
44705;DHT22;30431;48.520;9.046;2024-01-15T00:00:54;0.10;94.30
44705;DHT22;30431;48.520;9.046;2024-01-15T00:03:21;0.10;94.40
44705;DHT22;30431;48.520;9.046;2024-01-15T00:05:49;0.10;94.30
44705;DHT22;30431;48.520;9.046;2024-01-15T00:08:16;0.10;94.50
44705;DHT22;30431;48.520;9.046;2024-01-15T00:10:43;0.20;94.30
44705;DHT22;30431;48.520;9.046;2024-01-15T00:13:10;0.20;94.30
44705;DHT22;30431;48.520;9.046;2024-01-15T00:15:39;0.20;94.70
44705;DHT22;30431;48.520;9.046;2024-01-15T00:18:06;0.20;94.30
44705;DHT22;30431;48.520;9.046;2024-01-15T00:20:37;0.30;94.70
44705;DHT22;30431;48.520;9.046;2024-01-15T00:23:09;0.30;95.10
44705;DHT22;30431;48.520;9.046;2024-01-15T00:25:36;0.30;94.90
44705;DHT22;30431;48.520;9.046;2024-01-15T00:28:03;0.40;94.90
44705;DHT22;30431;48.520;9.046;2024-01-15T00:30:33;0.30;94.60
44705;DHT22;30431;48.520;9.046;2024-01-15T00:33:00;0.40;94.50
44705;DHT22;30431;48.520;9.046;2024-01-15T00:35:29;0.40;94.40
44705;DHT22;30431;48.520;9.046;2024-01-15T00:37:56;0.40;94.30
44705;DHT22;30431;48.520;9.046;2024-01-15T00:40:23;0.40;94.50
44705;DHT22;30431;48.520;9.046;2024-01-15T00:42:52;0.40;94.30
44705;DHT22;30431;48.520;9.046;2024-01-15T00:45:19;0.40;94.30
44705;DHT22;30431;48.520;9.046;2024-01-15T00:47:46;0.40;94.30
44705;DHT22;30431;48.520;9.046;2024-01-15T00:50:13;0.50;94.40
44705;DHT22;30431;48.520;9.046;2024-01-15T00:52:40;0.50;94.40
44705;DHT22;30431;48.520;9.046;2024-01-15T00:55:07;0.40;94.40
44705;DHT22;30431;48.520;9.046;2024-01-15T00:57:34;0.50;94.60
44705;DHT22;30431;48.520;9.046;2024-01-15T01:00:04;0.50;94.60
44705;DHT22;30431;48.520;9.046;2024-01-15T01:02:32;0.40;94.50
44705;DHT22;30431;48.520;9.046;2024-01-15T01:04:59;0.40;94.90
44705;DHT22;30431;48.520;9.046;2024-01-15T01:07:26;0.40;95.00
44705;DHT22;30431;48.520;9.046;2024-01-15T01:09:53;0.40;94.60
44705;DHT22;30431;48.520;9.046;2024-01-15T01:12:20;0.30;94.50
44705;DHT22;30431;48.520;9.046;2024-01-15T01:14:48;0.30;94.80
44705;DHT22;30431;48.520;9.046;2024-01-15T01:17:17;0.30;95.20
44705;DHT22;30431;48.520;9.046;2024-01-15T01:19:44;0.30;95.20
44705;DHT22;30431;48.520;9.046;2024-01-15T01:22:12;0.30;95.40
44705;DHT22;30431;48.520;9.046;2024-01-15T01:24:41;0.30;95.50
44705;DHT22;30431;48.520;9.046;2024-01-15T01:27:10;0.30;95.50
44705;DHT22;30431;48.520;9.046;2024-01-15T01:29:40;0.30;95.60
44705;DHT22;30431;48.520;9.046;2024-01-15T01:32:09;0.40;95.90
44705;DHT22;30431;48.520;9.046;2024-01-15T01:34:40;0.50;95.70
44705;DHT22;30431;48.520;9.046;2024-01-15T01:37:11;0.40;95.40
44705;DHT22;30431;48.520;9.046;2024-01-15T01:39:41;0.40;95.00
44705;DHT22;30431;48.520;9.046;2024-01-15T01:42:09;0.40;95.00
44705;DHT22;30431;48.520;9.046;2024-01-15T01:44:36;0.50;95.20
44705;DHT22;30431;48.520;9.046;2024-01-15T01:47:06;0.50;95.20
44705;DHT22;30431;48.520;9.046;2024-01-15T01:49:34;0.60;95.20
44705;DHT22;30431;48.520;9.046;2024-01-15T01:52:05;0.50;95.20
44705;DHT22;30431;48.520;9.046;2024-01-15T01:54:33;0.50;95.20
44705;DHT22;30431;48.520;9.046;2024-01-15T01:57:02;0.50;95.30
44705;DHT22;30431;48.520;9.046;2024-01-15T01:59:31;0.50;95.20
44705;DHT22;30431;48.520;9.046;2024-01-15T02:02:04;0.50;95.20
44705;DHT22;30431;48.520;9.046;2024-01-15T02:04:32;0.50;95.10
44705;DHT22;30431;48.520;9.046;2024-01-15T02:07:00;0.60;95.30
44705;DHT22;30431;48.520;9.046;2024-01-15T02:09:33;0.60;95.30
44705;DHT22;30431;48.520;9.046;2024-01-15T02:12:05;0.50;95.40
44705;DHT22;30431;48.520;9.046;2024-01-15T02:14:35;0.50;95.30
44705;DHT22;30431;48.520;9.046;2024-01-15T02:17:02;0.50;95.30
44705;DHT22;30431;48.520;9.046;2024-01-15T02:19:31;0.40;95.30
44705;DHT22;30431;48.520;9.046;2024-01-15T02:21:59;0.30;95.60
44705;DHT22;30431;48.520;9.046;2024-01-15T02:24:26;0.30;95.90
44705;DHT22;30431;48.520;9.046;2024-01-15T02:26:55;0.20;96.10
44705;DHT22;30431;48.520;9.046;2024-01-15T02:29:24;0.10;96.20
44705;DHT22;30431;48.520;9.046;2024-01-15T02:31:53;0.00;96.50
44705;DHT22;30431;48.520;9.046;2024-01-15T02:34:20;-0.10;96.80
44705;DHT22;30431;48.520;9.046;2024-01-15T02:36:47;-0.20;97.10
44705;DHT22;30431;48.520;9.046;2024-01-15T02:39:14;-0.30;97.20
44705;DHT22;30431;48.520;9.046;2024-01-15T02:41:44;-0.30;97.50
44705;DHT22;30431;48.520;9.046;2024-01-15T02:44:11;-0.40;97.80
44705;DHT22;30431;48.520;9.046;2024-01-15T02:46:40;-0.50;98.00
44705;DHT22;30431;48.520;9.046;2024-01-15T02:49:12;-0.50;98.10
44705;DHT22;30431;48.520;9.046;2024-01-15T02:51:39;-0.60;98.10
44705;DHT22;30431;48.520;9.046;2024-01-15T02:54:08;-0.60;98.30
44705;DHT22;30431;48.520;9.046;2024-01-15T02:56:35;-0.70;98.50
44705;DHT22;30431;48.520;9.046;2024-01-15T02:59:05;-0.70;98.70
44705;DHT22;30431;48.520;9.046;2024-01-15T03:01:32;-0.70;99.00
44705;DHT22;30431;48.520;9.046;2024-01-15T03:03:59;-0.70;99.10
44705;DHT22;30431;48.520;9.046;2024-01-15T03:06:28;-0.70;99.30
44705;DHT22;30431;48.520;9.046;2024-01-15T03:08:55;-0.70;99.30
44705;DHT22;30431;48.520;9.046;2024-01-15T03:11:22;-0.70;99.40
44705;DHT22;30431;48.520;9.046;2024-01-15T03:13:49;-0.60;99.40
44705;DHT22;30431;48.520;9.046;2024-01-15T03:16:16;-0.50;99.10
44705;DHT22;30431;48.520;9.046;2024-01-15T03:18:43;-0.50;99.20
44705;DHT22;30431;48.520;9.046;2024-01-15T03:21:10;-0.40;98.90
44705;DHT22;30431;48.520;9.046;2024-01-15T03:23:37;-0.30;98.90
44705;DHT22;30431;48.520;9.046;2024-01-15T03:26:07;-0.30;99.00
44705;DHT22;30431;48.520;9.046;2024-01-15T03:28:38;-0.20;98.80
44705;DHT22;30431;48.520;9.046;2024-01-15T03:31:05;0.00;98.50
44705;DHT22;30431;48.520;9.046;2024-01-15T03:33:35;0.10;98.30
44705;DHT22;30431;48.520;9.046;2024-01-15T03:36:05;0.20;97.90
44705;DHT22;30431;48.520;9.046;2024-01-15T03:38:32;0.30;97.70
44705;DHT22;30431;48.520;9.046;2024-01-15T03:41:05;0.40;97.60
44705;DHT22;30431;48.520;9.046;2024-01-15T03:43:32;0.50;97.30
44705;DHT22;30431;48.520;9.046;2024-01-15T03:45:59;0.60;97.30
44705;DHT22;30431;48.520;9.046;2024-01-15T03:48:29;0.60;97.00
44705;DHT22;30431;48.520;9.046;2024-01-15T03:50:58;0.70;97.00
44705;DHT22;30431;48.520;9.046;2024-01-15T03:53:27;0.70;96.70
44705;DHT22;30431;48.520;9.046;2024-01-15T03:55:56;0.80;96.80
44705;DHT22;30431;48.520;9.046;2024-01-15T03:58:25;0.80;96.90
44705;DHT22;30431;48.520;9.046;2024-01-15T04:00:52;0.80;96.80
44705;DHT22;30431;48.520;9.046;2024-01-15T04:03:19;0.80;96.70
44705;DHT22;30431;48.520;9.046;2024-01-15T04:05:46;0.90;96.70
44705;DHT22;30431;48.520;9.046;2024-01-15T04:08:14;0.90;96.70
44705;DHT22;30431;48.520;9.046;2024-01-15T04:10:41;0.90;96.70
44705;DHT22;30431;48.520;9.046;2024-01-15T04:13:08;0.90;96.70
44705;DHT22;30431;48.520;9.046;2024-01-15T04:15:35;0.90;96.90
44705;DHT22;30431;48.520;9.046;2024-01-15T04:18:05;1.00;96.70
44705;DHT22;30431;48.520;9.046;2024-01-15T04:20:32;1.00;96.80
44705;DHT22;30431;48.520;9.046;2024-01-15T04:22:59;1.00;96.80
44705;DHT22;30431;48.520;9.046;2024-01-15T04:25:26;1.00;96.90
44705;DHT22;30431;48.520;9.046;2024-01-15T04:27:53;1.10;97.00
44705;DHT22;30431;48.520;9.046;2024-01-15T04:30:20;1.00;96.90
44705;DHT22;30431;48.520;9.046;2024-01-15T04:32:47;1.00;96.80
44705;DHT22;30431;48.520;9.046;2024-01-15T04:35:15;1.10;96.80
44705;DHT22;30431;48.520;9.046;2024-01-15T04:37:42;1.00;96.60
44705;DHT22;30431;48.520;9.046;2024-01-15T04:40:10;1.10;96.60
44705;DHT22;30431;48.520;9.046;2024-01-15T04:42:40;1.10;96.70
44705;DHT22;30431;48.520;9.046;2024-01-15T04:45:08;1.10;96.80
44705;DHT22;30431;48.520;9.046;2024-01-15T04:47:35;1.00;96.80
44705;DHT22;30431;48.520;9.046;2024-01-15T04:50:04;1.10;96.90
44705;DHT22;30431;48.520;9.046;2024-01-15T04:52:32;1.00;97.00
44705;DHT22;30431;48.520;9.046;2024-01-15T04:55:02;1.10;97.20
44705;DHT22;30431;48.520;9.046;2024-01-15T04:57:29;1.00;97.10
44705;DHT22;30431;48.520;9.046;2024-01-15T04:59:56;1.00;97.00
44705;DHT22;30431;48.520;9.046;2024-01-15T05:02:23;1.00;97.50
44705;DHT22;30431;48.520;9.046;2024-01-15T05:04:50;1.00;97.40
44705;DHT22;30431;48.520;9.046;2024-01-15T05:07:17;1.00;97.20
44705;DHT22;30431;48.520;9.046;2024-01-15T05:09:46;1.00;97.30
44705;DHT22;30431;48.520;9.046;2024-01-15T05:12:13;0.90;97.40
44705;DHT22;30431;48.520;9.046;2024-01-15T05:14:43;0.90;97.60
44705;DHT22;30431;48.520;9.046;2024-01-15T05:17:10;0.90;97.90
44705;DHT22;30431;48.520;9.046;2024-01-15T05:19:37;0.90;98.10
44705;DHT22;30431;48.520;9.046;2024-01-15T05:22:08;0.90;98.20
44705;DHT22;30431;48.520;9.046;2024-01-15T05:24:35;0.90;98.10
44705;DHT22;30431;48.520;9.046;2024-01-15T05:27:02;0.90;98.30
44705;DHT22;30431;48.520;9.046;2024-01-15T05:29:29;0.90;98.30
44705;DHT22;30431;48.520;9.046;2024-01-15T05:31:56;1.00;98.40
44705;DHT22;30431;48.520;9.046;2024-01-15T05:34:27;0.90;98.50
44705;DHT22;30431;48.520;9.046;2024-01-15T05:36:57;0.90;98.50
44705;DHT22;30431;48.520;9.046;2024-01-15T05:39:24;0.90;98.60
44705;DHT22;30431;48.520;9.046;2024-01-15T05:41:54;0.90;98.50
44705;DHT22;30431;48.520;9.046;2024-01-15T05:44:20;0.90;98.60
44705;DHT22;30431;48.520;9.046;2024-01-15T05:46:47;0.90;98.90
44705;DHT22;30431;48.520;9.046;2024-01-15T05:49:14;1.00;98.90
44705;DHT22;30431;48.520;9.046;2024-01-15T05:51:42;1.00;98.80
44705;DHT22;30431;48.520;9.046;2024-01-15T05:54:11;1.00;98.80
44705;DHT22;30431;48.520;9.046;2024-01-15T05:56:38;1.00;98.60
44705;DHT22;30431;48.520;9.046;2024-01-15T05:59:05;1.10;98.50
44705;DHT22;30431;48.520;9.046;2024-01-15T06:01:32;1.10;98.60
44705;DHT22;30431;48.520;9.046;2024-01-15T06:03:59;1.10;98.40
44705;DHT22;30431;48.520;9.046;2024-01-15T06:06:27;1.10;98.30
44705;DHT22;30431;48.520;9.046;2024-01-15T06:08:54;1.10;98.40
44705;DHT22;30431;48.520;9.046;2024-01-15T06:11:21;1.10;98.40
44705;DHT22;30431;48.520;9.046;2024-01-15T06:13:48;1.10;98.30
44705;DHT22;30431;48.520;9.046;2024-01-15T06:16:15;1.10;98.50
44705;DHT22;30431;48.520;9.046;2024-01-15T06:18:45;1.10;98.00
44705;DHT22;30431;48.520;9.046;2024-01-15T06:21:12;1.10;98.00
44705;DHT22;30431;48.520;9.046;2024-01-15T06:23:43;1.10;98.00
44705;DHT22;30431;48.520;9.046;2024-01-15T06:26:14;1.20;98.00
44705;DHT22;30431;48.520;9.046;2024-01-15T06:28:41;1.20;97.90
44705;DHT22;30431;48.520;9.046;2024-01-15T06:31:08;1.20;98.00
44705;DHT22;30431;48.520;9.046;2024-01-15T06:33:37;1.20;97.90
44705;DHT22;30431;48.520;9.046;2024-01-15T06:36:05;1.20;97.80
44705;DHT22;30431;48.520;9.046;2024-01-15T06:38:32;1.20;97.60
44705;DHT22;30431;48.520;9.046;2024-01-15T06:41:05;1.20;97.70
44705;DHT22;30431;48.520;9.046;2024-01-15T06:43:39;1.20;97.20
44705;DHT22;30431;48.520;9.046;2024-01-15T06:46:08;1.20;97.30
44705;DHT22;30431;48.520;9.046;2024-01-15T06:48:36;1.20;97.10
44705;DHT22;30431;48.520;9.046;2024-01-15T06:51:03;1.20;97.30
44705;DHT22;30431;48.520;9.046;2024-01-15T06:53:30;1.30;97.20
44705;DHT22;30431;48.520;9.046;2024-01-15T06:55:57;1.30;96.90
44705;DHT22;30431;48.520;9.046;2024-01-15T06:58:26;1.30;96.90
44705;DHT22;30431;48.520;9.046;2024-01-15T07:00:53;1.30;96.50
44705;DHT22;30431;48.520;9.046;2024-01-15T07:03:21;1.30;96.40
44705;DHT22;30431;48.520;9.046;2024-01-15T07:05:50;1.20;96.70
44705;DHT22;30431;48.520;9.046;2024-01-15T07:08:19;1.20;96.90
44705;DHT22;30431;48.520;9.046;2024-01-15T07:10:46;1.30;97.00
44705;DHT22;30431;48.520;9.046;2024-01-15T07:13:13;1.30;96.90
44705;DHT22;30431;48.520;9.046;2024-01-15T07:15:42;1.30;96.40
44705;DHT22;30431;48.520;9.046;2024-01-15T07:18:11;1.30;96.10
44705;DHT22;30431;48.520;9.046;2024-01-15T07:20:39;1.30;96.20
44705;DHT22;30431;48.520;9.046;2024-01-15T07:23:08;1.20;96.00
44705;DHT22;30431;48.520;9.046;2024-01-15T07:25:35;1.30;96.00
44705;DHT22;30431;48.520;9.046;2024-01-15T07:28:02;1.30;96.00
44705;DHT22;30431;48.520;9.046;2024-01-15T07:30:30;1.30;95.90
44705;DHT22;30431;48.520;9.046;2024-01-15T07:32:57;1.30;95.80
44705;DHT22;30431;48.520;9.046;2024-01-15T07:35:24;1.30;95.70
44705;DHT22;30431;48.520;9.046;2024-01-15T07:37:51;1.30;95.40
44705;DHT22;30431;48.520;9.046;2024-01-15T07:40:18;1.30;95.20
44705;DHT22;30431;48.520;9.046;2024-01-15T07:42:45;1.30;95.50
44705;DHT22;30431;48.520;9.046;2024-01-15T07:45:12;1.30;95.60
44705;DHT22;30431;48.520;9.046;2024-01-15T07:47:41;1.30;95.00
44705;DHT22;30431;48.520;9.046;2024-01-15T07:50:09;1.30;95.50
44705;DHT22;30431;48.520;9.046;2024-01-15T07:52:36;1.40;95.30
44705;DHT22;30431;48.520;9.046;2024-01-15T07:55:03;1.40;95.50
44705;DHT22;30431;48.520;9.046;2024-01-15T07:57:32;1.40;95.30
44705;DHT22;30431;48.520;9.046;2024-01-15T07:59:59;1.50;95.20
44705;DHT22;30431;48.520;9.046;2024-01-15T08:02:26;1.50;95.20
44705;DHT22;30431;48.520;9.046;2024-01-15T08:04:55;1.50;95.20
44705;DHT22;30431;48.520;9.046;2024-01-15T08:07:22;1.50;94.90
44705;DHT22;30431;48.520;9.046;2024-01-15T08:09:52;1.60;95.10
44705;DHT22;30431;48.520;9.046;2024-01-15T08:12:19;1.60;95.00
44705;DHT22;30431;48.520;9.046;2024-01-15T08:14:46;1.60;94.70
44705;DHT22;30431;48.520;9.046;2024-01-15T08:17:15;1.70;94.80
44705;DHT22;30431;48.520;9.046;2024-01-15T08:19:45;1.70;94.70
44705;DHT22;30431;48.520;9.046;2024-01-15T08:22:13;1.80;94.60
44705;DHT22;30431;48.520;9.046;2024-01-15T08:24:43;1.80;94.50
44705;DHT22;30431;48.520;9.046;2024-01-15T08:27:10;1.90;94.60
44705;DHT22;30431;48.520;9.046;2024-01-15T08:29:40;1.90;94.30
44705;DHT22;30431;48.520;9.046;2024-01-15T08:32:10;2.00;94.50
44705;DHT22;30431;48.520;9.046;2024-01-15T08:34:43;2.00;94.20
44705;DHT22;30431;48.520;9.046;2024-01-15T08:37:10;2.00;94.00
44705;DHT22;30431;48.520;9.046;2024-01-15T08:39:37;2.00;93.70
44705;DHT22;30431;48.520;9.046;2024-01-15T08:42:07;2.00;93.60
44705;DHT22;30431;48.520;9.046;2024-01-15T08:44:34;2.10;93.20
44705;DHT22;30431;48.520;9.046;2024-01-15T08:47:02;2.10;92.80
44705;DHT22;30431;48.520;9.046;2024-01-15T08:49:29;2.10;92.70
44705;DHT22;30431;48.520;9.046;2024-01-15T08:51:56;2.10;92.50
44705;DHT22;30431;48.520;9.046;2024-01-15T08:54:28;2.20;92.30
44705;DHT22;30431;48.520;9.046;2024-01-15T08:56:57;2.30;92.20
44705;DHT22;30431;48.520;9.046;2024-01-15T08:59:27;2.30;91.90
44705;DHT22;30431;48.520;9.046;2024-01-15T09:01:54;2.40;91.50
44705;DHT22;30431;48.520;9.046;2024-01-15T09:04:20;2.50;91.30
44705;DHT22;30431;48.520;9.046;2024-01-15T09:06:50;2.50;90.90
44705;DHT22;30431;48.520;9.046;2024-01-15T09:09:19;2.50;90.70
44705;DHT22;30431;48.520;9.046;2024-01-15T09:11:49;2.60;90.60
44705;DHT22;30431;48.520;9.046;2024-01-15T09:14:18;2.70;90.30
44705;DHT22;30431;48.520;9.046;2024-01-15T09:17:03;2.70;90.30
44705;DHT22;30431;48.520;9.046;2024-01-15T09:19:30;2.70;90.60
44705;DHT22;30431;48.520;9.046;2024-01-15T09:21:58;2.70;90.50
44705;DHT22;30431;48.520;9.046;2024-01-15T09:24:27;2.70;90.70
44705;DHT22;30431;48.520;9.046;2024-01-15T09:26:55;2.80;90.80
44705;DHT22;30431;48.520;9.046;2024-01-15T09:29:22;2.90;91.00
44705;DHT22;30431;48.520;9.046;2024-01-15T09:31:51;3.00;90.90
44705;DHT22;30431;48.520;9.046;2024-01-15T09:34:18;3.00;90.40
44705;DHT22;30431;48.520;9.046;2024-01-15T09:36:48;3.00;90.30
44705;DHT22;30431;48.520;9.046;2024-01-15T09:39:17;3.10;90.00
44705;DHT22;30431;48.520;9.046;2024-01-15T09:41:47;3.10;90.00
44705;DHT22;30431;48.520;9.046;2024-01-15T09:44:17;3.20;89.80
44705;DHT22;30431;48.520;9.046;2024-01-15T09:46:44;3.30;90.00
44705;DHT22;30431;48.520;9.046;2024-01-15T09:49:11;3.40;89.30
44705;DHT22;30431;48.520;9.046;2024-01-15T09:51:39;3.50;89.60
44705;DHT22;30431;48.520;9.046;2024-01-15T09:54:07;3.60;88.60
44705;DHT22;30431;48.520;9.046;2024-01-15T09:56:37;3.70;87.20
44705;DHT22;30431;48.520;9.046;2024-01-15T09:59:07;3.70;85.30
44705;DHT22;30431;48.520;9.046;2024-01-15T10:01:36;3.70;84.80
44705;DHT22;30431;48.520;9.046;2024-01-15T10:04:06;3.80;84.00
44705;DHT22;30431;48.520;9.046;2024-01-15T10:06:33;3.90;84.20
44705;DHT22;30431;48.520;9.046;2024-01-15T10:09:01;3.80;84.10
44705;DHT22;30431;48.520;9.046;2024-01-15T10:11:30;3.80;84.30
44705;DHT22;30431;48.520;9.046;2024-01-15T10:14:00;3.90;84.30
44705;DHT22;30431;48.520;9.046;2024-01-15T10:16:27;3.90;83.70
44705;DHT22;30431;48.520;9.046;2024-01-15T10:18:56;3.80;83.90
44705;DHT22;30431;48.520;9.046;2024-01-15T10:21:28;3.90;84.60
44705;DHT22;30431;48.520;9.046;2024-01-15T10:24:02;3.90;84.00
44705;DHT22;30431;48.520;9.046;2024-01-15T10:26:30;3.90;84.30
44705;DHT22;30431;48.520;9.046;2024-01-15T10:29:00;3.90;84.00
44705;DHT22;30431;48.520;9.046;2024-01-15T10:31:30;3.90;84.40
44705;DHT22;30431;48.520;9.046;2024-01-15T10:34:13;4.00;84.50
44705;DHT22;30431;48.520;9.046;2024-01-15T10:36:45;4.00;83.90
44705;DHT22;30431;48.520;9.046;2024-01-15T10:39:15;4.00;85.10
44705;DHT22;30431;48.520;9.046;2024-01-15T10:41:44;4.00;84.70
44705;DHT22;30431;48.520;9.046;2024-01-15T10:44:11;4.00;84.70
44705;DHT22;30431;48.520;9.046;2024-01-15T10:46:41;3.90;84.40
44705;DHT22;30431;48.520;9.046;2024-01-15T10:49:10;3.90;85.10
44705;DHT22;30431;48.520;9.046;2024-01-15T10:51:40;4.00;85.40
44705;DHT22;30431;48.520;9.046;2024-01-15T10:54:13;4.00;84.10
44705;DHT22;30431;48.520;9.046;2024-01-15T10:56:41;4.00;84.10
44705;DHT22;30431;48.520;9.046;2024-01-15T10:59:11;3.90;84.30
44705;DHT22;30431;48.520;9.046;2024-01-15T11:01:40;3.80;84.50
44705;DHT22;30431;48.520;9.046;2024-01-15T11:04:08;3.70;84.40
44705;DHT22;30431;48.520;9.046;2024-01-15T11:06:47;3.70;85.90
44705;DHT22;30431;48.520;9.046;2024-01-15T11:09:14;3.70;85.30
44705;DHT22;30431;48.520;9.046;2024-01-15T11:11:51;3.60;84.80
44705;DHT22;30431;48.520;9.046;2024-01-15T11:14:35;3.60;85.80
44705;DHT22;30431;48.520;9.046;2024-01-15T11:17:02;3.50;86.60
44705;DHT22;30431;48.520;9.046;2024-01-15T11:19:45;3.40;87.40
44705;DHT22;30431;48.520;9.046;2024-01-15T11:27:52;3.30;88.60
44705;DHT22;30431;48.520;9.046;2024-01-15T11:30:20;3.20;89.10
44705;DHT22;30431;48.520;9.046;2024-01-15T11:32:52;3.30;89.60
44705;DHT22;30431;48.520;9.046;2024-01-15T11:35:21;3.30;89.90
44705;DHT22;30431;48.520;9.046;2024-01-15T11:43:06;3.50;90.10
44705;DHT22;30431;48.520;9.046;2024-01-15T11:45:39;3.40;90.30
44705;DHT22;30431;48.520;9.046;2024-01-15T11:48:14;3.40;91.00
44705;DHT22;30431;48.520;9.046;2024-01-15T11:50:48;3.30;91.30
44705;DHT22;30431;48.520;9.046;2024-01-15T11:55:58;3.30;92.20
44705;DHT22;30431;48.520;9.046;2024-01-15T11:58:26;3.20;92.30
44705;DHT22;30431;48.520;9.046;2024-01-15T12:00:53;3.20;92.20
44705;DHT22;30431;48.520;9.046;2024-01-15T12:03:22;3.20;92.10
44705;DHT22;30431;48.520;9.046;2024-01-15T12:05:51;3.40;92.40
44705;DHT22;30431;48.520;9.046;2024-01-15T12:08:23;3.40;92.40
44705;DHT22;30431;48.520;9.046;2024-01-15T12:10:50;3.50;92.50
44705;DHT22;30431;48.520;9.046;2024-01-15T12:13:18;3.50;92.20
44705;DHT22;30431;48.520;9.046;2024-01-15T12:15:48;3.60;91.90
44705;DHT22;30431;48.520;9.046;2024-01-15T12:18:17;3.50;91.60
44705;DHT22;30431;48.520;9.046;2024-01-15T12:20:50;3.60;91.70
44705;DHT22;30431;48.520;9.046;2024-01-15T12:23:23;3.60;91.80
44705;DHT22;30431;48.520;9.046;2024-01-15T12:25:51;3.60;92.20
44705;DHT22;30431;48.520;9.046;2024-01-15T12:28:20;3.60;91.80
44705;DHT22;30431;48.520;9.046;2024-01-15T12:30:49;3.50;91.70
44705;DHT22;30431;48.520;9.046;2024-01-15T12:33:18;3.60;91.70
44705;DHT22;30431;48.520;9.046;2024-01-15T12:35:47;3.60;91.70
44705;DHT22;30431;48.520;9.046;2024-01-15T12:38:14;3.60;91.70
44705;DHT22;30431;48.520;9.046;2024-01-15T12:40:44;3.60;91.90
44705;DHT22;30431;48.520;9.046;2024-01-15T12:43:13;3.60;92.40
44705;DHT22;30431;48.520;9.046;2024-01-15T12:45:42;3.50;93.70
44705;DHT22;30431;48.520;9.046;2024-01-15T12:48:10;3.30;94.10
44705;DHT22;30431;48.520;9.046;2024-01-15T12:50:37;3.20;95.00
44705;DHT22;30431;48.520;9.046;2024-01-15T12:53:04;3.20;94.70
44705;DHT22;30431;48.520;9.046;2024-01-15T12:55:33;3.10;94.80
44705;DHT22;30431;48.520;9.046;2024-01-15T12:58:01;3.10;94.90
44705;DHT22;30431;48.520;9.046;2024-01-15T13:00:28;3.10;94.80
44705;DHT22;30431;48.520;9.046;2024-01-15T13:02:56;3.10;95.00
44705;DHT22;30431;48.520;9.046;2024-01-15T13:05:25;3.10;95.60
44705;DHT22;30431;48.520;9.046;2024-01-15T13:07:54;3.10;96.20
44705;DHT22;30431;48.520;9.046;2024-01-15T13:10:21;3.10;96.20
44705;DHT22;30431;48.520;9.046;2024-01-15T13:12:51;3.20;96.00
44705;DHT22;30431;48.520;9.046;2024-01-15T13:15:20;3.10;96.10
44705;DHT22;30431;48.520;9.046;2024-01-15T13:17:47;3.10;96.40
44705;DHT22;30431;48.520;9.046;2024-01-15T13:20:14;3.20;96.50
44705;DHT22;30431;48.520;9.046;2024-01-15T13:22:41;3.20;96.40
44705;DHT22;30431;48.520;9.046;2024-01-15T13:25:11;3.10;97.00
44705;DHT22;30431;48.520;9.046;2024-01-15T13:27:43;3.00;98.00
44705;DHT22;30431;48.520;9.046;2024-01-15T13:30:10;2.90;98.90
44705;DHT22;30431;48.520;9.046;2024-01-15T13:32:41;2.90;99.60
44705;DHT22;30431;48.520;9.046;2024-01-15T13:35:08;2.90;99.70
44705;DHT22;30431;48.520;9.046;2024-01-15T13:37:37;2.80;99.80
44705;DHT22;30431;48.520;9.046;2024-01-15T13:40:05;2.70;99.90
44705;DHT22;30431;48.520;9.046;2024-01-15T13:42:34;2.70;99.90
44705;DHT22;30431;48.520;9.046;2024-01-15T13:45:01;2.60;99.90
44705;DHT22;30431;48.520;9.046;2024-01-15T13:47:29;2.60;99.90
44705;DHT22;30431;48.520;9.046;2024-01-15T13:49:56;2.60;99.90
44705;DHT22;30431;48.520;9.046;2024-01-15T13:52:26;2.50;99.90
44705;DHT22;30431;48.520;9.046;2024-01-15T13:54:54;2.50;99.90
44705;DHT22;30431;48.520;9.046;2024-01-15T13:57:21;2.50;99.90
44705;DHT22;30431;48.520;9.046;2024-01-15T13:59:49;2.50;99.90
44705;DHT22;30431;48.520;9.046;2024-01-15T14:02:20;2.40;99.90
44705;DHT22;30431;48.520;9.046;2024-01-15T14:04:50;2.40;99.90
44705;DHT22;30431;48.520;9.046;2024-01-15T14:07:17;2.40;99.90
44705;DHT22;30431;48.520;9.046;2024-01-15T14:09:46;2.40;99.90
44705;DHT22;30431;48.520;9.046;2024-01-15T14:12:13;2.40;99.90
44705;DHT22;30431;48.520;9.046;2024-01-15T14:14:41;2.40;99.90
44705;DHT22;30431;48.520;9.046;2024-01-15T14:17:08;2.40;99.90
44705;DHT22;30431;48.520;9.046;2024-01-15T14:19:37;2.40;99.90
44705;DHT22;30431;48.520;9.046;2024-01-15T14:22:05;2.30;99.90
44705;DHT22;30431;48.520;9.046;2024-01-15T14:24:35;2.30;99.90
44705;DHT22;30431;48.520;9.046;2024-01-15T14:27:03;2.30;99.90
44705;DHT22;30431;48.520;9.046;2024-01-15T14:29:33;2.30;99.90
44705;DHT22;30431;48.520;9.046;2024-01-15T14:32:00;2.20;99.90
44705;DHT22;30431;48.520;9.046;2024-01-15T14:34:28;2.20;99.90
44705;DHT22;30431;48.520;9.046;2024-01-15T14:36:57;2.20;99.90
44705;DHT22;30431;48.520;9.046;2024-01-15T14:39:27;2.20;99.90
44705;DHT22;30431;48.520;9.046;2024-01-15T14:41:56;2.30;99.90
44705;DHT22;30431;48.520;9.046;2024-01-15T14:44:23;2.30;99.90
44705;DHT22;30431;48.520;9.046;2024-01-15T14:46:50;2.30;99.90
44705;DHT22;30431;48.520;9.046;2024-01-15T14:49:17;2.20;99.90
44705;DHT22;30431;48.520;9.046;2024-01-15T14:51:45;2.30;99.90
44705;DHT22;30431;48.520;9.046;2024-01-15T14:54:15;2.30;99.90
44705;DHT22;30431;48.520;9.046;2024-01-15T14:56:44;2.30;99.90
44705;DHT22;30431;48.520;9.046;2024-01-15T14:59:11;2.30;99.90
44705;DHT22;30431;48.520;9.046;2024-01-15T15:01:40;2.20;99.90
44705;DHT22;30431;48.520;9.046;2024-01-15T15:04:11;2.20;99.90
44705;DHT22;30431;48.520;9.046;2024-01-15T15:06:40;2.20;99.90
44705;DHT22;30431;48.520;9.046;2024-01-15T15:09:08;2.10;99.90
44705;DHT22;30431;48.520;9.046;2024-01-15T15:11:41;2.00;99.90
44705;DHT22;30431;48.520;9.046;2024-01-15T15:14:08;2.00;99.90
44705;DHT22;30431;48.520;9.046;2024-01-15T15:16:35;2.00;99.90
44705;DHT22;30431;48.520;9.046;2024-01-15T15:19:05;2.00;99.90
44705;DHT22;30431;48.520;9.046;2024-01-15T15:21:32;2.00;99.90
44705;DHT22;30431;48.520;9.046;2024-01-15T15:24:01;2.00;99.90
44705;DHT22;30431;48.520;9.046;2024-01-15T15:26:28;2.00;99.90
44705;DHT22;30431;48.520;9.046;2024-01-15T15:28:55;2.00;99.90
44705;DHT22;30431;48.520;9.046;2024-01-15T15:31:22;2.10;99.90
44705;DHT22;30431;48.520;9.046;2024-01-15T15:33:52;2.10;99.90
44705;DHT22;30431;48.520;9.046;2024-01-15T15:36:23;2.10;99.90
44705;DHT22;30431;48.520;9.046;2024-01-15T15:38:50;2.10;99.90
44705;DHT22;30431;48.520;9.046;2024-01-15T15:41:19;2.00;99.90
44705;DHT22;30431;48.520;9.046;2024-01-15T15:43:46;2.00;99.90
44705;DHT22;30431;48.520;9.046;2024-01-15T15:46:17;1.90;99.90
44705;DHT22;30431;48.520;9.046;2024-01-15T15:48:45;1.90;99.90
44705;DHT22;30431;48.520;9.046;2024-01-15T15:51:13;1.80;99.90
44705;DHT22;30431;48.520;9.046;2024-01-15T15:53:40;1.70;99.90
44705;DHT22;30431;48.520;9.046;2024-01-15T15:56:07;1.60;99.90
44705;DHT22;30431;48.520;9.046;2024-01-15T15:58:34;1.50;99.90
44705;DHT22;30431;48.520;9.046;2024-01-15T16:01:04;1.50;99.90
44705;DHT22;30431;48.520;9.046;2024-01-15T16:03:33;1.50;99.80
44705;DHT22;30431;48.520;9.046;2024-01-15T16:06:01;1.50;99.90